TimePST,TemperatureF,Dew PointF,Humidity,Sea Level PressureIn,VisibilityMPH,Wind Direction,Wind SpeedMPH,Gust SpeedMPH,PrecipitationIn,Events,Conditions,WindDirDegrees,DateUTC
12:53 AM,37.0,18.0,46,30.17,10.0,WSW,4.6,-,N/A,,Clear,250,2013-01-06 08:53:00
1:53 AM,37.9,18.0,45,30.16,10.0,West,4.6,-,N/A,,Clear,260,2013-01-06 09:53:00
2:53 AM,37.9,19.0,47,30.14,10.0,Calm,Calm,-,N/A,,Clear,0,2013-01-06 10:53:00
3:53 AM,39.9,19.9,45,30.13,10.0,West,3.5,-,N/A,,Clear,270,2013-01-06 11:53:00
4:53 AM,39.9,21.0,47,30.12,10.0,West,3.5,-,N/A,,Clear,270,2013-01-06 12:53:00
5:53 AM,39.0,21.0,49,30.12,10.0,SW,3.5,-,N/A,,Clear,220,2013-01-06 13:53:00
6:53 AM,37.9,17.1,43,30.12,10.0,Calm,Calm,-,N/A,,Clear,0,2013-01-06 14:53:00
7:53 AM,39.9,25.0,55,30.13,10.0,Calm,Calm,-,N/A,,Clear,0,2013-01-06 15:53:00
8:53 AM,48.9,21.0,33,30.13,10.0,Calm,Calm,-,N/A,,Clear,0,2013-01-06 16:53:00
9:53 AM,55.9,23.0,28,30.12,10.0,Calm,Calm,-,N/A,,Clear,0,2013-01-06 17:53:00
10:53 AM,64.0,37.0,37,30.09,10.0,SW,6.9,-,N/A,,Clear,230,2013-01-06 18:53:00
11:53 AM,64.0,34.0,33,30.05,10.0,WNW,6.9,-,N/A,,Scattered Clouds,300,2013-01-06 19:53:00
12:53 PM,64.9,33.1,31,30.02,10.0,NW,12.7,-,N/A,,Partly Cloudy,320,2013-01-06 20:53:00
1:53 PM,64.0,32.0,30,30.01,10.0,WNW,13.8,21.9,N/A,,Partly Cloudy,290,2013-01-06 21:53:00
2:53 PM,66.0,30.0,26,30.00,10.0,WNW,9.2,17.3,N/A,,Partly Cloudy,290,2013-01-06 22:53:00
3:53 PM,63.0,30.0,29,30.00,10.0,WNW,15.0,-,N/A,,Partly Cloudy,300,2013-01-06 23:53:00
4:53 PM,60.1,32.0,35,29.99,10.0,WNW,12.7,-,N/A,,Mostly Cloudy,300,2013-01-07 00:53:00
5:53 PM,53.1,32.0,45,30.00,10.0,West,9.2,-,N/A,,Clear,280,2013-01-07 01:53:00
6:53 PM,53.1,34.0,48,29.98,10.0,WSW,16.1,-,N/A,,Clear,250,2013-01-07 02:53:00
7:53 PM,51.1,34.0,52,29.99,10.0,WSW,11.5,-,N/A,,Clear,250,2013-01-07 03:53:00
8:53 PM,53.1,36.0,52,29.99,10.0,West,15.0,-,N/A,,Clear,260,2013-01-07 04:53:00
9:53 PM,50.0,35.1,57,29.99,10.0,WSW,9.2,-,N/A,,Clear,250,2013-01-07 05:53:00
10:53 PM,51.1,37.0,59,29.98,10.0,West,9.2,-,N/A,,Scattered Clouds,270,2013-01-07 06:53:00
11:53 PM,53.1,37.9,57,29.98,10.0,West,11.5,-,N/A,,Overcast,270,2013-01-07 07:53:00